Time;durP1;ratioP1;P1;durP2;ratioP2;P2;SDS_P1;SDS_P2;PMS_P1;PMS_P2;Temp;Humidity;BMP_temperature;BMP_pressure;BME280_temperature;BME280_humidity;BME280_pressure;Samples;Min_cycle;Max_cycle;Signal;HPM_P1;HPM_P2
2022/03/05 00:00:30;;;;;;;;;;;1.50;99.90;;;;;;5093370;28;19923;-77
2022/03/05 00:02:56;;;;;;;;;;;1.50;99.90;;;;;;5093240;28;19908;-77
2022/03/05 00:05:22;;;;;;;;;;;1.50;99.90;;;;;;5093024;28;19938;-77
2022/03/05 00:07:47;;;;;;;;;;;1.50;99.90;;;;;;5093796;28;19908;-77
2022/03/05 00:10:14;;;;;;;;;;;1.50;99.90;;;;;;5092877;28;20011;-77
2022/03/05 00:12:40;;;;;;;;;;;1.50;99.90;;;;;;5093374;28;20424;-77
2022/03/05 00:15:06;;;;;;;;;;;1.50;99.90;;;;;;5092503;28;19999;-77
2022/03/05 00:17:31;;;;;;;;;;;1.50;99.90;;;;;;5091945;28;19908;-77
2022/03/05 00:19:57;;;;;;;;;;;1.40;99.90;;;;;;5093151;28;19915;-78
2022/03/05 00:22:23;;;;;;;;;;;1.50;99.90;;;;;;5092464;28;20003;-78
2022/03/05 00:24:49;;;;;;;;;;;1.40;99.90;;;;;;5093129;28;19962;-78
2022/03/05 00:27:14;;;;;;;;;;;1.40;99.90;;;;;;5091342;28;19912;-77
2022/03/05 00:29:40;;;;;;;;;;;1.50;99.90;;;;;;5093066;28;19995;-78
2022/03/05 00:32:06;;;;;;;;;;;1.50;99.90;;;;;;5092645;28;19908;-77
2022/03/05 00:34:31;;;;;;;;;;;1.50;99.90;;;;;;5092845;28;19912;-78
2022/03/05 00:36:57;;;;;;;;;;;1.50;99.90;;;;;;5093008;28;19916;-77
2022/03/05 00:39:23;;;;;;;;;;;1.50;99.90;;;;;;5092829;28;20254;-77
2022/03/05 00:41:49;;;;;;;;;;;1.40;99.90;;;;;;5092394;28;19912;-78
2022/03/05 00:44:14;;;;;;;;;;;1.40;99.90;;;;;;5091385;28;19920;-78
2022/03/05 00:46:41;;;;;;;;;;;1.30;99.90;;;;;;5091883;28;20769;-77
2022/03/05 00:49:06;;;;;;;;;;;1.20;99.90;;;;;;5091504;28;20375;-77
2022/03/05 00:51:32;;;;;;;;;;;1.10;99.90;;;;;;5092397;28;19913;-78
2022/03/05 00:53:58;;;;;;;;;;;1.10;99.90;;;;;;5092393;28;20006;-77
2022/03/05 00:56:23;;;;;;;;;;;1.00;99.90;;;;;;5091840;28;20415;-77
2022/03/05 00:58:49;;;;;;;;;;;1.00;99.90;;;;;;5092631;28;19920;-78
2022/03/05 01:01:14;;;;;;;;;;;0.90;99.90;;;;;;5090433;28;20008;-78
2022/03/05 01:03:40;;;;;;;;;;;0.80;99.90;;;;;;5092220;28;19915;-78
2022/03/05 01:06:06;;;;;;;;;;;0.80;99.90;;;;;;5099268;28;19920;-78
2022/03/05 01:08:33;;;;;;;;;;;0.80;99.90;;;;;;5091484;28;20002;-77
2022/03/05 01:10:59;;;;;;;;;;;0.80;99.90;;;;;;5091882;28;19929;-79
2022/03/05 01:13:25;;;;;;;;;;;0.80;99.90;;;;;;5091400;28;19935;-79
2022/03/05 01:15:51;;;;;;;;;;;0.80;99.90;;;;;;5092237;28;20377;-77
2022/03/05 01:18:16;;;;;;;;;;;0.80;99.90;;;;;;5091887;28;19908;-78
2022/03/05 01:20:42;;;;;;;;;;;0.70;99.90;;;;;;5092863;28;20018;-80
2022/03/05 01:23:07;;;;;;;;;;;0.70;99.90;;;;;;5092002;28;19944;-79
2022/03/05 01:25:33;;;;;;;;;;;0.60;99.90;;;;;;5092554;28;19923;-80
2022/03/05 01:27:58;;;;;;;;;;;0.60;99.90;;;;;;5092283;28;20364;-80
2022/03/05 01:30:24;;;;;;;;;;;0.50;99.90;;;;;;5091815;28;19916;-79
2022/03/05 01:32:50;;;;;;;;;;;0.50;99.90;;;;;;5092313;28;19998;-79
2022/03/05 01:35:15;;;;;;;;;;;0.50;99.90;;;;;;5092307;28;19908;-79
2022/03/05 01:37:41;;;;;;;;;;;0.50;99.90;;;;;;5092341;28;19915;-79
2022/03/05 01:40:07;;;;;;;;;;;0.40;99.90;;;;;;5095150;28;19940;-79
2022/03/05 01:42:32;;;;;;;;;;;0.40;99.90;;;;;;5096147;28;19912;-79
2022/03/05 01:44:58;;;;;;;;;;;0.40;99.90;;;;;;5095969;28;20341;-79
2022/03/05 01:47:23;;;;;;;;;;;0.40;99.90;;;;;;5095413;28;19907;-79
2022/03/05 01:49:49;;;;;;;;;;;0.40;99.90;;;;;;5095768;28;20049;-79
2022/03/05 01:52:14;;;;;;;;;;;0.40;99.90;;;;;;5095372;28;19943;-79
2022/03/05 01:54:40;;;;;;;;;;;0.40;99.90;;;;;;5095927;28;20065;-79
2022/03/05 01:57:06;;;;;;;;;;;0.50;99.90;;;;;;5095213;28;19921;-76
2022/03/05 01:59:32;;;;;;;;;;;0.50;99.90;;;;;;5095755;28;20410;-79
2022/03/05 02:01:58;;;;;;;;;;;0.50;99.90;;;;;;5095578;28;19915;-79
2022/03/05 02:04:25;;;;;;;;;;;0.70;99.90;;;;;;5094081;28;20640;-79
2022/03/05 02:06:54;;;;;;;;;;;0.70;99.90;;;;;;5095380;28;19915;-79
2022/03/05 02:09:20;;;;;;;;;;;0.70;99.90;;;;;;5094762;28;19962;-79
2022/03/05 02:11:45;;;;;;;;;;;0.70;99.90;;;;;;5095234;28;19908;-79
2022/03/05 02:14:15;;;;;;;;;;;0.80;99.90;;;;;;5094706;28;20002;-79
2022/03/05 02:16:40;;;;;;;;;;;0.70;99.90;;;;;;5095488;28;19915;-79
2022/03/05 02:19:06;;;;;;;;;;;0.80;99.90;;;;;;5094933;28;19998;-75
2022/03/05 02:21:32;;;;;;;;;;;0.80;99.90;;;;;;5110675;28;19912;-79
2022/03/05 02:23:58;;;;;;;;;;;0.90;99.90;;;;;;5100152;28;19915;-79
2022/03/05 02:26:23;;;;;;;;;;;0.90;99.90;;;;;;5095242;28;20361;-79
2022/03/05 02:28:49;;;;;;;;;;;0.90;99.90;;;;;;5095328;28;19954;-79
2022/03/05 02:31:15;;;;;;;;;;;0.80;99.90;;;;;;5094671;28;19908;-79
2022/03/05 02:33:42;;;;;;;;;;;0.80;99.90;;;;;;5094722;28;19908;-79
2022/03/05 02:36:07;;;;;;;;;;;0.80;99.90;;;;;;5095078;28;20049;-76
2022/03/05 02:38:33;;;;;;;;;;;0.70;99.90;;;;;;5094609;28;19948;-79
2022/03/05 02:40:59;;;;;;;;;;;0.50;99.90;;;;;;5095017;28;20332;-78
2022/03/05 02:43:25;;;;;;;;;;;0.50;99.90;;;;;;5094622;28;19912;-78
2022/03/05 02:45:51;;;;;;;;;;;0.40;99.90;;;;;;5094693;28;19916;-79
2022/03/05 02:48:17;;;;;;;;;;;0.40;99.90;;;;;;5094292;28;20375;-79
2022/03/05 02:50:44;;;;;;;;;;;0.40;99.90;;;;;;5093870;28;19912;-79
2022/03/05 02:53:09;;;;;;;;;;;0.40;99.90;;;;;;5094477;28;19915;-76
2022/03/05 02:55:35;;;;;;;;;;;0.40;99.90;;;;;;5095006;28;19908;-79
2022/03/05 02:58:01;;;;;;;;;;;0.40;99.90;;;;;;5094155;28;20296;-79
2022/03/05 03:00:27;;;;;;;;;;;0.30;99.90;;;;;;5093846;28;19965;-79
2022/03/05 03:02:52;;;;;;;;;;;0.20;99.90;;;;;;5094465;28;19916;-79
2022/03/05 03:05:18;;;;;;;;;;;0.20;99.90;;;;;;5094207;28;19925;-79
2022/03/05 03:07:44;;;;;;;;;;;0.10;99.90;;;;;;5094542;28;19912;-79
2022/03/05 03:10:10;;;;;;;;;;;0.10;99.90;;;;;;5094283;28;19947;-76
2022/03/05 03:12:37;;;;;;;;;;;0.00;99.90;;;;;;5094428;28;20000;-79
2022/03/05 03:15:03;;;;;;;;;;;0.10;99.90;;;;;;5094503;28;19912;-79
2022/03/05 03:17:29;;;;;;;;;;;0.10;99.90;;;;;;5093783;28;19908;-79
2022/03/05 03:19:55;;;;;;;;;;;0.10;99.90;;;;;;5094142;28;20014;-80
2022/03/05 03:22:20;;;;;;;;;;;0.10;99.90;;;;;;5093709;28;19908;-80
2022/03/05 03:24:46;;;;;;;;;;;0.10;99.90;;;;;;5093965;28;19923;-80
2022/03/05 03:27:12;;;;;;;;;;;0.10;99.90;;;;;;5093931;28;19908;-76
2022/03/05 03:29:38;;;;;;;;;;;0.10;99.90;;;;;;5093980;28;19908;-80
2022/03/05 03:32:04;;;;;;;;;;;0.00;99.90;;;;;;5092906;28;19912;-80
2022/03/05 03:34:29;;;;;;;;;;;0.00;99.90;;;;;;5093222;28;19914;-79
2022/03/05 03:36:55;;;;;;;;;;;-0.10;99.90;;;;;;5102886;28;19908;-79
2022/03/05 03:39:20;;;;;;;;;;;0.00;99.90;;;;;;5103607;28;19912;-80
2022/03/05 03:41:46;;;;;;;;;;;-0.10;99.90;;;;;;5094401;28;19908;-80
2022/03/05 03:44:11;;;;;;;;;;;-0.10;99.90;;;;;;5093352;28;19915;-76
2022/03/05 03:46:37;;;;;;;;;;;-0.10;99.90;;;;;;5093054;28;19919;-80
2022/03/05 03:49:03;;;;;;;;;;;-0.20;99.90;;;;;;5093828;28;19950;-80
2022/03/05 03:51:28;;;;;;;;;;;-0.20;99.90;;;;;;5093024;28;19986;-80
2022/03/05 03:53:54;;;;;;;;;;;-0.20;99.90;;;;;;5093576;28;19912;-80
2022/03/05 03:56:19;;;;;;;;;;;-0.20;99.90;;;;;;5093021;28;19908;-80
2022/03/05 03:58:45;;;;;;;;;;;-0.10;99.90;;;;;;5094079;28;20349;-80
2022/03/05 04:01:10;;;;;;;;;;;-0.10;99.90;;;;;;5092063;28;19908;-80
2022/03/05 04:03:36;;;;;;;;;;;-0.10;99.90;;;;;;5092933;28;19909;-80
2022/03/05 04:06:02;;;;;;;;;;;-0.10;99.90;;;;;;5093402;28;19916;-79
2022/03/05 04:08:42;;;;;;;;;;;-0.10;99.90;;;;;;5092858;28;19915;-79
2022/03/05 04:11:18;;;;;;;;;;;-0.20;99.90;;;;;;5093488;28;19915;-80
2022/03/05 04:13:44;;;;;;;;;;;-0.20;99.90;;;;;;5093399;28;19960;-80
2022/03/05 04:16:10;;;;;;;;;;;-0.20;99.90;;;;;;5093263;28;19908;-79
2022/03/05 04:18:35;;;;;;;;;;;-0.30;99.90;;;;;;5092546;28;20405;-79
2022/03/05 04:21:01;;;;;;;;;;;-0.30;99.90;;;;;;5093052;28;19908;-79
2022/03/05 04:23:27;;;;;;;;;;;-0.20;99.90;;;;;;5092744;28;19908;-80
2022/03/05 04:25:53;;;;;;;;;;;-0.20;99.90;;;;;;5093167;28;19923;-79
2022/03/05 04:28:19;;;;;;;;;;;-0.20;99.90;;;;;;5092690;28;19908;-80
2022/03/05 04:30:44;;;;;;;;;;;-0.20;99.90;;;;;;5093219;28;19919;-81
2022/03/05 04:33:10;;;;;;;;;;;-0.10;99.90;;;;;;5093164;28;19908;-80
2022/03/05 04:35:36;;;;;;;;;;;0.00;99.90;;;;;;5091179;28;19955;-81
2022/03/05 04:38:02;;;;;;;;;;;0.10;99.90;;;;;;5093086;28;20364;-81
2022/03/05 04:40:27;;;;;;;;;;;0.10;99.90;;;;;;5092450;28;19912;-80
2022/03/05 04:42:53;;;;;;;;;;;0.10;99.90;;;;;;5092971;28;20376;-80
2022/03/05 04:45:18;;;;;;;;;;;0.20;99.90;;;;;;5092064;28;19916;-76
2022/03/05 04:47:44;;;;;;;;;;;0.20;99.90;;;;;;5092762;28;19934;-80
2022/03/05 04:50:09;;;;;;;;;;;0.10;99.90;;;;;;5092955;28;19908;-80
2022/03/05 04:52:35;;;;;;;;;;;0.00;99.90;;;;;;5104245;28;19892;-80
2022/03/05 04:55:02;;;;;;;;;;;-0.10;99.90;;;;;;5102062;28;19994;-80
2022/03/05 04:57:27;;;;;;;;;;;-0.10;99.90;;;;;;5092325;28;20294;-80
2022/03/05 04:59:53;;;;;;;;;;;-0.20;99.90;;;;;;5092817;28;19914;-80
2022/03/05 05:02:18;;;;;;;;;;;-0.30;99.90;;;;;;5092125;28;20002;-79
2022/03/05 05:04:44;;;;;;;;;;;-0.40;99.90;;;;;;5092215;28;19965;-81
2022/03/05 05:07:10;;;;;;;;;;;-0.40;99.90;;;;;;5092401;28;19990;-82
2022/03/05 05:09:35;;;;;;;;;;;-0.40;99.90;;;;;;5092242;28;20001;-81
2022/03/05 05:12:01;;;;;;;;;;;-0.50;99.90;;;;;;5092855;28;19948;-81
2022/03/05 05:14:26;;;;;;;;;;;-0.50;99.90;;;;;;5094507;28;20361;-81
2022/03/05 05:16:52;;;;;;;;;;;-0.50;99.90;;;;;;5096369;28;20323;-81
2022/03/05 05:19:29;;;;;;;;;;;-0.50;99.90;;;;;;5096960;28;19943;-81
2022/03/05 05:21:59;;;;;;;;;;;-0.50;99.90;;;;;;5096635;28;19947;-81
2022/03/05 05:24:26;;;;;;;;;;;-0.40;99.90;;;;;;5095915;28;20014;-81
2022/03/05 05:26:52;;;;;;;;;;;-0.40;99.90;;;;;;5096542;28;20366;-81
2022/03/05 05:29:17;;;;;;;;;;;-0.50;99.90;;;;;;5096494;28;19915;-81
2022/03/05 05:31:43;;;;;;;;;;;-0.40;99.90;;;;;;5095565;28;20277;-81
2022/03/05 05:34:08;;;;;;;;;;;-0.50;99.90;;;;;;5096619;28;19908;-82
2022/03/05 05:36:36;;;;;;;;;;;-0.50;99.90;;;;;;5095439;28;20391;-81
2022/03/05 05:39:02;;;;;;;;;;;-0.50;99.90;;;;;;5095997;28;20001;-81
2022/03/05 05:41:27;;;;;;;;;;;-0.50;99.90;;;;;;5095286;28;19919;-81
2022/03/05 05:43:53;;;;;;;;;;;-0.50;99.90;;;;;;5094989;28;20433;-82
2022/03/05 05:46:18;;;;;;;;;;;-0.50;99.90;;;;;;5096037;28;20310;-81
2022/03/05 05:48:44;;;;;;;;;;;-0.50;99.90;;;;;;5095712;28;19912;-81
2022/03/05 05:51:10;;;;;;;;;;;-0.40;99.90;;;;;;5095600;28;19922;-81
2022/03/05 05:53:35;;;;;;;;;;;-0.50;99.90;;;;;;5095368;28;19995;-81
2022/03/05 05:56:01;;;;;;;;;;;-0.50;99.90;;;;;;5094678;28;19915;-80
2022/03/05 05:58:26;;;;;;;;;;;-0.40;99.90;;;;;;5095198;28;19920;-81
2022/03/05 06:00:52;;;;;;;;;;;-0.40;99.90;;;;;;5095853;28;20260;-81
2022/03/05 06:03:17;;;;;;;;;;;-0.40;99.90;;;;;;5095768;28;19908;-80
2022/03/05 06:05:43;;;;;;;;;;;-0.40;99.90;;;;;;5114816;28;20192;-80
2022/03/05 06:08:08;;;;;;;;;;;-0.40;99.90;;;;;;5097086;28;19908;-81
2022/03/05 06:10:34;;;;;;;;;;;-0.40;99.90;;;;;;5095491;28;20011;-81
2022/03/05 06:12:59;;;;;;;;;;;-0.40;99.90;;;;;;5095604;28;19915;-81
2022/03/05 06:15:25;;;;;;;;;;;-0.40;99.90;;;;;;5094908;28;19908;-80
2022/03/05 06:17:54;;;;;;;;;;;-0.50;99.90;;;;;;5095285;28;20009;-81
2022/03/05 06:20:20;;;;;;;;;;;-0.50;99.90;;;;;;5094200;28;19908;-81
2022/03/05 06:22:45;;;;;;;;;;;-0.50;99.90;;;;;;5094586;28;19912;-81
2022/03/05 06:25:11;;;;;;;;;;;-0.50;99.90;;;;;;5094755;28;20014;-81
2022/03/05 06:27:37;;;;;;;;;;;-0.40;99.90;;;;;;5094625;28;19908;-81
2022/03/05 06:30:02;;;;;;;;;;;-0.40;99.90;;;;;;5094913;28;20301;-81
2022/03/05 06:32:28;;;;;;;;;;;-0.50;99.90;;;;;;5094703;28;20375;-81
2022/03/05 06:34:56;;;;;;;;;;;-0.50;99.90;;;;;;5096102;28;19965;-81
2022/03/05 06:37:23;;;;;;;;;;;-0.50;99.90;;;;;;5095238;28;19908;-81
2022/03/05 06:39:48;;;;;;;;;;;-0.50;99.90;;;;;;5094641;28;19939;-81
2022/03/05 06:42:15;;;;;;;;;;;-0.50;99.90;;;;;;5094777;28;19912;-81
2022/03/05 06:44:40;;;;;;;;;;;-0.50;99.90;;;;;;5094258;28;19916;-81
2022/03/05 06:47:06;;;;;;;;;;;-0.50;99.90;;;;;;5095259;28;19915;-81
2022/03/05 06:49:32;;;;;;;;;;;-0.50;99.90;;;;;;5094102;28;20007;-81
2022/03/05 06:51:58;;;;;;;;;;;-0.50;99.90;;;;;;5094753;28;19908;-81
2022/03/05 06:54:24;;;;;;;;;;;-0.50;99.90;;;;;;5094735;28;19912;-81
2022/03/05 06:56:49;;;;;;;;;;;-0.60;99.90;;;;;;5093810;28;19920;-81
2022/03/05 06:59:15;;;;;;;;;;;-0.60;99.90;;;;;;5094805;28;19908;-82
2022/03/05 07:01:41;;;;;;;;;;;-0.60;99.90;;;;;;5093954;28;19952;-81
2022/03/05 07:04:07;;;;;;;;;;;-0.70;99.90;;;;;;5094581;28;19908;-82
2022/03/05 07:06:32;;;;;;;;;;;-0.60;99.90;;;;;;5093928;28;20024;-81
2022/03/05 07:08:58;;;;;;;;;;;-0.60;99.90;;;;;;5094826;28;19908;-81
2022/03/05 07:11:23;;;;;;;;;;;-0.60;99.90;;;;;;5094379;28;20345;-81
2022/03/05 07:13:49;;;;;;;;;;;-0.60;99.90;;;;;;5093793;28;19912;-82
2022/03/05 07:16:15;;;;;;;;;;;-0.60;99.90;;;;;;5094312;28;19915;-82
2022/03/05 07:18:40;;;;;;;;;;;-0.60;99.90;;;;;;5093404;28;19930;-81
2022/03/05 07:21:06;;;;;;;;;;;-0.60;99.90;;;;;;5113352;28;19937;-82
2022/03/05 07:23:31;;;;;;;;;;;-0.60;99.90;;;;;;5094304;28;19915;-82
2022/03/05 07:25:57;;;;;;;;;;;-0.50;99.90;;;;;;5093811;28;19923;-82
2022/03/05 07:28:23;;;;;;;;;;;-0.60;99.90;;;;;;5094175;28;19908;-81
2022/03/05 07:30:48;;;;;;;;;;;-0.50;99.90;;;;;;5093515;28;19962;-82
2022/03/05 07:33:14;;;;;;;;;;;-0.60;99.90;;;;;;5094121;28;19912;-81
2022/03/05 07:35:40;;;;;;;;;;;-0.50;99.90;;;;;;5093104;28;20003;-81
2022/03/05 07:38:05;;;;;;;;;;;-0.40;99.90;;;;;;5093501;28;19908;-81
2022/03/05 07:40:31;;;;;;;;;;;-0.30;99.90;;;;;;5093402;28;19910;-79
2022/03/05 07:42:57;;;;;;;;;;;-0.10;99.90;;;;;;5094670;28;19908;-81
2022/03/05 07:45:22;;;;;;;;;;;-0.10;99.90;;;;;;5094304;28;19920;-82
2022/03/05 07:47:48;;;;;;;;;;;0.00;99.90;;;;;;5093134;28;20757;-81
2022/03/05 07:50:13;;;;;;;;;;;0.20;99.90;;;;;;5094317;28;20344;-81
2022/03/05 07:52:39;;;;;;;;;;;0.40;99.90;;;;;;5093435;28;19915;-81
2022/03/05 07:55:05;;;;;;;;;;;0.40;99.90;;;;;;5092562;28;20268;-81
2022/03/05 07:57:31;;;;;;;;;;;0.50;99.90;;;;;;5093164;28;19920;-76
2022/03/05 07:59:57;;;;;;;;;;;0.60;99.90;;;;;;5093591;28;19908;-81
2022/03/05 08:02:22;;;;;;;;;;;0.60;99.90;;;;;;5093568;28;20257;-82
2022/03/05 08:04:49;;;;;;;;;;;0.80;99.90;;;;;;5092703;28;19916;-82
2022/03/05 08:07:15;;;;;;;;;;;0.90;99.90;;;;;;5093201;28;19915;-81
2022/03/05 08:09:43;;;;;;;;;;;1.00;99.90;;;;;;5093158;28;19908;-81
2022/03/05 08:12:09;;;;;;;;;;;1.00;99.90;;;;;;5093343;28;19914;-81
2022/03/05 08:14:35;;;;;;;;;;;1.20;99.90;;;;;;5092642;28;19908;-80
2022/03/05 08:17:01;;;;;;;;;;;1.30;99.90;;;;;;5093289;28;19911;-81
2022/03/05 08:19:27;;;;;;;;;;;1.30;99.90;;;;;;5093147;28;20250;-81
2022/03/05 08:21:52;;;;;;;;;;;1.50;99.90;;;;;;5092281;28;19904;-80
2022/03/05 08:24:18;;;;;;;;;;;1.60;99.90;;;;;;5091854;28;19912;-81
2022/03/05 08:26:44;;;;;;;;;;;1.70;99.90;;;;;;5092642;28;19913;-81
2022/03/05 08:29:10;;;;;;;;;;;1.80;99.90;;;;;;5093052;28;19908;-81
2022/03/05 08:31:35;;;;;;;;;;;1.90;99.90;;;;;;5092550;28;19931;-78
2022/03/05 08:34:03;;;;;;;;;;;2.10;99.90;;;;;;5093116;28;19908;-79
2022/03/05 08:36:29;;;;;;;;;;;2.10;99.90;;;;;;5097712;28;19913;-77
2022/03/05 08:38:55;;;;;;;;;;;2.20;99.90;;;;;;5092960;28;20273;-78
2022/03/05 08:41:21;;;;;;;;;;;2.30;99.90;;;;;;5093055;28;19952;-78
2022/03/05 08:43:46;;;;;;;;;;;2.40;99.90;;;;;;5092411;28;19966;-78
2022/03/05 08:46:12;;;;;;;;;;;2.50;99.90;;;;;;5092566;28;19922;-78
2022/03/05 08:48:37;;;;;;;;;;;2.60;99.90;;;;;;5093207;28;19954;-78
2022/03/05 08:51:03;;;;;;;;;;;2.60;99.90;;;;;;5096868;28;20256;-79
2022/03/05 08:53:29;;;;;;;;;;;2.70;99.90;;;;;;5097043;28;19908;-78
2022/03/05 08:55:55;;;;;;;;;;;2.90;99.90;;;;;;5096519;28;19915;-78
2022/03/05 08:58:21;;;;;;;;;;;2.90;99.90;;;;;;5096737;28;20432;-78
2022/03/05 09:00:47;;;;;;;;;;;3.00;99.90;;;;;;5096320;28;19947;-79
2022/03/05 09:03:12;;;;;;;;;;;3.00;99.90;;;;;;5096670;28;19912;-80
2022/03/05 09:05:38;;;;;;;;;;;3.10;99.90;;;;;;5095887;28;20258;-80
2022/03/05 09:08:04;;;;;;;;;;;3.20;99.90;;;;;;5095949;28;19916;-80
2022/03/05 09:10:30;;;;;;;;;;;3.30;99.90;;;;;;5096281;28;19912;-80
2022/03/05 09:12:55;;;;;;;;;;;3.30;99.90;;;;;;5095556;28;19955;-81
2022/03/05 09:15:21;;;;;;;;;;;3.40;99.90;;;;;;5096650;28;19908;-80
2022/03/05 09:17:47;;;;;;;;;;;3.40;99.90;;;;;;5095910;28;20390;-79
2022/03/05 09:20:14;;;;;;;;;;;3.50;99.90;;;;;;5096575;28;19915;-80
2022/03/05 09:22:40;;;;;;;;;;;3.60;99.90;;;;;;5096389;28;19943;-79
2022/03/05 09:25:06;;;;;;;;;;;3.60;99.90;;;;;;5096291;28;20005;-80
2022/03/05 09:27:33;;;;;;;;;;;3.70;99.90;;;;;;5096309;28;19916;-81
2022/03/05 09:29:58;;;;;;;;;;;3.80;99.90;;;;;;5095818;28;19908;-80
2022/03/05 09:32:24;;;;;;;;;;;3.90;99.90;;;;;;5095862;28;20280;-81
2022/03/05 09:34:50;;;;;;;;;;;4.00;99.90;;;;;;5094925;28;19908;-81
2022/03/05 09:37:15;;;;;;;;;;;4.10;99.90;;;;;;5095498;28;20330;-81
2022/03/05 09:39:41;;;;;;;;;;;4.10;99.90;;;;;;5095572;28;19908;-81
2022/03/05 09:42:07;;;;;;;;;;;4.30;99.90;;;;;;5095973;28;20368;-82
2022/03/05 09:44:33;;;;;;;;;;;4.40;99.90;;;;;;5095532;28;20036;-81
2022/03/05 09:47:02;;;;;;;;;;;4.50;99.90;;;;;;5095398;28;20713;-81
2022/03/05 09:49:28;;;;;;;;;;;4.50;99.90;;;;;;5095685;28;20273;-80
2022/03/05 09:51:54;;;;;;;;;;;4.60;99.90;;;;;;5098557;28;19915;-80
2022/03/05 09:54:19;;;;;;;;;;;4.60;99.90;;;;;;5104847;28;19908;-81
2022/03/05 09:56:45;;;;;;;;;;;4.70;99.90;;;;;;5094581;28;19934;-82
2022/03/05 09:59:11;;;;;;;;;;;4.90;99.90;;;;;;5095471;28;19908;-82
2022/03/05 10:01:36;;;;;;;;;;;4.90;99.90;;;;;;5095647;28;19908;-82
2022/03/05 10:04:02;;;;;;;;;;;5.00;99.90;;;;;;5095227;28;20321;-82
2022/03/05 10:06:28;;;;;;;;;;;5.10;99.90;;;;;;5095588;28;19916;-82
2022/03/05 10:08:57;;;;;;;;;;;5.10;99.90;;;;;;5094933;28;19912;-82
2022/03/05 10:11:24;;;;;;;;;;;5.20;99.90;;;;;;5095568;28;19909;-82
2022/03/05 10:13:49;;;;;;;;;;;5.40;99.90;;;;;;5094849;28;19915;-82
2022/03/05 10:16:25;;;;;;;;;;;5.60;99.90;;;;;;5095478;28;19912;-82
2022/03/05 10:18:52;;;;;;;;;;;5.70;99.90;;;;;;5094797;28;20011;-82
2022/03/05 10:21:17;;;;;;;;;;;5.80;99.90;;;;;;5094857;28;19920;-81
2022/03/05 10:23:47;;;;;;;;;;;6.00;99.90;;;;;;5094272;28;19909;-78
2022/03/05 10:26:15;;;;;;;;;;;6.10;99.90;;;;;;5094738;28;19916;-81
2022/03/05 10:28:41;;;;;;;;;;;6.10;99.90;;;;;;5094923;28;20364;-78
2022/03/05 10:31:08;;;;;;;;;;;6.20;99.90;;;;;;5094933;28;19952;-81
2022/03/05 10:33:35;;;;;;;;;;;6.30;99.90;;;;;;5095009;28;19912;-81
2022/03/05 10:36:02;;;;;;;;;;;6.30;99.90;;;;;;5094307;28;19931;-82
2022/03/05 10:38:46;;;;;;;;;;;6.30;99.90;;;;;;5095002;28;19908;-81
2022/03/05 10:41:17;;;;;;;;;;;6.30;99.90;;;;;;5094850;28;19916;-81
2022/03/05 10:43:43;;;;;;;;;;;6.40;99.90;;;;;;5094634;28;19908;-77
2022/03/05 10:46:09;;;;;;;;;;;6.40;99.90;;;;;;5094671;28;19916;-79
2022/03/05 10:48:36;;;;;;;;;;;6.40;99.90;;;;;;5094516;28;19923;-79
2022/03/05 10:51:09;;;;;;;;;;;6.50;99.90;;;;;;5086720;28;20481;-79
2022/03/05 10:53:43;;;;;;;;;;;6.50;99.90;;;;;;5093916;28;20281;-81
2022/03/05 10:56:25;;;;;;;;;;;6.50;99.90;;;;;;5094579;28;19908;-79
2022/03/05 10:59:02;;;;;;;;;;;6.60;99.90;;;;;;5093520;28;19924;-78
2022/03/05 11:01:28;;;;;;;;;;;6.60;99.90;;;;;;5094418;28;19908;-80
2022/03/05 11:03:53;;;;;;;;;;;6.60;99.90;;;;;;5093908;28;19930;-79
2022/03/05 11:06:19;;;;;;;;;;;6.70;99.90;;;;;;5094507;28;20349;-81
2022/03/05 11:08:46;;;;;;;;;;;6.80;99.90;;;;;;5103728;28;19931;-76
2022/03/05 11:11:13;;;;;;;;;;;6.80;99.90;;;;;;5095067;28;19930;-81
2022/03/05 11:13:38;;;;;;;;;;;6.90;99.90;;;;;;5094238;28;19996;-79
2022/03/05 11:16:04;;;;;;;;;;;6.90;99.90;;;;;;5094082;28;19994;-79
2022/03/05 11:18:30;;;;;;;;;;;6.90;99.90;;;;;;5094290;28;19912;-79
2022/03/05 11:20:56;;;;;;;;;;;7.10;99.90;;;;;;5093696;28;19914;-79
2022/03/05 11:23:22;;;;;;;;;;;7.10;99.90;;;;;;5093973;28;20277;-79
2022/03/05 11:25:47;;;;;;;;;;;7.10;99.90;;;;;;5093215;28;19916;-78
2022/03/05 11:28:18;;;;;;;;;;;7.10;99.90;;;;;;5093759;28;19999;-79
2022/03/05 11:30:44;;;;;;;;;;;7.10;99.90;;;;;;5093853;28;20383;-77
2022/03/05 11:33:12;;;;;;;;;;;7.20;99.90;;;;;;5093561;28;19915;-79
2022/03/05 11:35:43;;;;;;;;;;;7.20;99.90;;;;;;5093733;28;19908;-79
2022/03/05 11:38:27;;;;;;;;;;;7.30;99.90;;;;;;5093382;28;19915;-78
2022/03/05 11:40:52;;;;;;;;;;;7.30;99.90;;;;;;5093921;28;19970;-79
2022/03/05 11:43:22;;;;;;;;;;;7.20;99.90;;;;;;5093728;28;20408;-80
2022/03/05 11:45:56;;;;;;;;;;;7.20;99.90;;;;;;5093170;28;20479;-78
2022/03/05 11:48:24;;;;;;;;;;;7.10;99.90;;;;;;5093824;28;19908;-79
2022/03/05 11:50:50;;;;;;;;;;;7.10;99.90;;;;;;5093055;28;19999;-79
2022/03/05 11:53:16;;;;;;;;;;;7.20;99.90;;;;;;5092396;28;19912;-79
2022/03/05 11:55:43;;;;;;;;;;;7.20;99.90;;;;;;5093347;28;20349;-79
2022/03/05 11:58:14;;;;;;;;;;;7.30;99.90;;;;;;5092863;28;20136;-80
2022/03/05 12:00:49;;;;;;;;;;;7.50;99.90;;;;;;5093533;28;19912;-80
2022/03/05 12:03:21;;;;;;;;;;;7.60;99.90;;;;;;5093687;28;20285;-79
2022/03/05 12:05:47;;;;;;;;;;;7.70;99.90;;;;;;5092895;28;20016;-78
2022/03/05 12:08:33;;;;;;;;;;;7.80;99.90;;;;;;5093044;28;19962;-79
2022/03/05 12:11:11;;;;;;;;;;;7.80;99.90;;;;;;5084930;28;19908;-78
2022/03/05 12:13:46;;;;;;;;;;;7.70;99.90;;;;;;5092742;28;20104;-80
2022/03/05 12:16:13;;;;;;;;;;;7.70;99.90;;;;;;5092538;28;19965;-79
2022/03/05 12:18:40;;;;;;;;;;;7.60;99.90;;;;;;5092658;28;19908;-79
2022/03/05 12:21:05;;;;;;;;;;;7.60;99.90;;;;;;5092838;28;19915;-79
2022/03/05 12:23:31;;;;;;;;;;;7.60;99.90;;;;;;5098556;28;19908;-79
2022/03/05 12:25:57;;;;;;;;;;;7.60;99.90;;;;;;5099965;28;19916;-79
2022/03/05 12:28:23;;;;;;;;;;;7.70;99.90;;;;;;5093219;28;19955;-79
2022/03/05 12:30:51;;;;;;;;;;;7.70;99.90;;;;;;5092722;28;19916;-77
2022/03/05 12:33:18;;;;;;;;;;;7.70;99.90;;;;;;5092723;28;19908;-79
2022/03/05 12:35:45;;;;;;;;;;;7.70;99.90;;;;;;5092681;28;19931;-80
2022/03/05 12:38:15;;;;;;;;;;;7.50;99.90;;;;;;5092347;28;20723;-79
2022/03/05 12:40:40;;;;;;;;;;;7.40;99.90;;;;;;5092901;28;19915;-79
2022/03/05 12:43:07;;;;;;;;;;;7.40;99.90;;;;;;5092164;28;19908;-79
2022/03/05 12:45:36;;;;;;;;;;;7.40;99.90;;;;;;5092779;28;20026;-79
2022/03/05 12:48:13;;;;;;;;;;;7.40;99.90;;;;;;5092239;28;19912;-79
2022/03/05 12:50:39;;;;;;;;;;;7.40;99.90;;;;;;5092860;28;19908;-79
2022/03/05 12:53:08;;;;;;;;;;;7.40;99.90;;;;;;5091939;28;19912;-79
2022/03/05 12:55:41;;;;;;;;;;;7.60;99.90;;;;;;5092523;28;20002;-79
2022/03/05 12:58:07;;;;;;;;;;;7.70;99.90;;;;;;5091409;28;19926;-79
2022/03/05 13:00:33;;;;;;;;;;;7.60;99.90;;;;;;5092567;28;20264;-78
2022/03/05 13:02:59;;;;;;;;;;;7.60;99.90;;;;;;5091501;28;19991;-78
2022/03/05 13:05:24;;;;;;;;;;;7.70;99.90;;;;;;5092253;28;19923;-79
2022/03/05 13:07:50;;;;;;;;;;;7.70;99.90;;;;;;5092351;28;20003;-79
2022/03/05 13:10:18;;;;;;;;;;;7.70;99.90;;;;;;5091630;28;19915;-78
2022/03/05 13:12:44;;;;;;;;;;;7.70;99.90;;;;;;5092405;28;20337;-77
2022/03/05 13:15:21;;;;;;;;;;;7.80;99.90;;;;;;5091948;28;19934;-78
2022/03/05 13:17:47;;;;;;;;;;;7.90;99.90;;;;;;5092745;28;19912;-78
2022/03/05 13:20:14;;;;;;;;;;;7.90;99.90;;;;;;5091825;28;19983;-78
2022/03/05 13:22:41;;;;;;;;;;;7.90;99.90;;;;;;5092315;28;19908;-78
2022/03/05 13:25:10;;;;;;;;;;;7.90;99.90;;;;;;5091387;28;19923;-78
2022/03/05 13:27:36;;;;;;;;;;;8.00;99.90;;;;;;5092293;28;19908;-78
2022/03/05 13:30:11;;;;;;;;;;;7.90;99.90;;;;;;5090693;28;19916;-77
2022/03/05 13:32:46;;;;;;;;;;;7.90;99.90;;;;;;5092293;28;19908;-78
2022/03/05 13:35:12;;;;;;;;;;;8.00;99.90;;;;;;5093286;28;19915;-77
2022/03/05 13:37:39;;;;;;;;;;;7.90;99.90;;;;;;5096790;28;19908;-78
2022/03/05 13:40:06;;;;;;;;;;;7.90;99.90;;;;;;5107220;28;19919;-78
2022/03/05 13:42:33;;;;;;;;;;;8.00;99.90;;;;;;5096067;28;19990;-80
2022/03/05 13:45:01;;;;;;;;;;;8.10;99.90;;;;;;5094235;28;19916;-78
2022/03/05 13:47:27;;;;;;;;;;;8.10;99.90;;;;;;5096053;28;19957;-78
2022/03/05 13:49:58;;;;;;;;;;;8.10;99.90;;;;;;5096001;28;19912;-78
2022/03/05 13:52:25;;;;;;;;;;;8.10;99.90;;;;;;5095622;28;19908;-78
2022/03/05 13:54:51;;;;;;;;;;;8.30;99.90;;;;;;5095515;28;19908;-78
2022/03/05 13:57:27;;;;;;;;;;;8.30;99.90;;;;;;5094811;28;19973;-78
2022/03/05 13:59:53;;;;;;;;;;;8.30;99.90;;;;;;5095882;28;19963;-78
2022/03/05 14:02:18;;;;;;;;;;;8.10;99.90;;;;;;5094679;28;19955;-78
2022/03/05 14:04:58;;;;;;;;;;;8.00;99.90;;;;;;5095498;28;19920;-78
2022/03/05 14:07:23;;;;;;;;;;;7.80;99.90;;;;;;5094551;28;19912;-78
2022/03/05 14:09:49;;;;;;;;;;;7.80;99.90;;;;;;5094566;28;19919;-78
2022/03/05 14:12:15;;;;;;;;;;;7.80;99.90;;;;;;5093768;28;19934;-78
2022/03/05 14:14:41;;;;;;;;;;;7.90;99.90;;;;;;5094901;28;19908;-78
2022/03/05 14:17:07;;;;;;;;;;;8.00;99.90;;;;;;5092057;28;19912;-78
2022/03/05 14:19:33;;;;;;;;;;;8.10;99.90;;;;;;5094831;28;19945;-78
2022/03/05 14:22:06;;;;;;;;;;;8.20;99.90;;;;;;5094183;28;20385;-78